Time;durP1;ratioP1;P1;durP2;ratioP2;P2;SDS_P1;SDS_P2;PMS_P1;PMS_P2;Temp;Humidity;BMP_temperature;BMP_pressure;BME280_temperature;BME280_humidity;BME280_pressure;Samples;Min_cycle;Max_cycle;Signal;HPM_P1;HPM_P2
2023/05/31 00:00:47;;;;;;;;;19.20;18.40;;;;;18.87;52.83;101545.63;2095171;28;47595;-62
2023/05/31 00:01:47;;;;;;;;;16.00;15.75;;;;;18.85;52.78;101544.81;2096933;28;45978;-62
2023/05/31 00:02:47;;;;;;;;;19.00;18.00;;;;;18.83;53.10;101547.56;2096016;28;45108;-61
2023/05/31 00:03:48;;;;;;;;;18.00;16.50;;;;;18.80;52.90;101545.91;2096396;28;46422;-61
2023/05/31 00:04:48;;;;;;;;;18.25;17.25;;;;;18.81;53.20;101533.31;2095730;28;45694;-60
2023/05/31 00:05:49;;;;;;;;;19.50;19.00;;;;;18.79;53.05;101544.13;2094580;28;46566;-63
2023/05/31 00:06:49;;;;;;;;;18.00;17.00;;;;;18.79;53.13;101537.88;2099656;28;46641;-60
2023/05/31 00:07:49;;;;;;;;;19.75;18.25;;;;;18.76;52.90;101538.88;2103681;28;45697;-62
2023/05/31 00:08:50;;;;;;;;;21.25;20.75;;;;;18.76;53.07;101538.00;2103625;28;46559;-61
2023/05/31 00:09:50;;;;;;;;;19.00;18.75;;;;;18.76;53.15;101538.00;2098002;28;45832;-61
2023/05/31 00:10:50;;;;;;;;;24.50;23.00;;;;;18.75;53.07;101539.81;2103974;28;46224;-61
2023/05/31 00:11:51;;;;;;;;;18.50;15.50;;;;;18.75;53.38;101538.94;2101374;28;46084;-62
2023/05/31 00:12:51;;;;;;;;;17.00;16.00;;;;;18.75;53.44;101538.94;2104006;28;48095;-61
2023/05/31 00:13:52;;;;;;;;;18.75;18.00;;;;;18.73;53.60;101533.63;2104301;28;45777;-62
2023/05/31 00:14:52;;;;;;;;;14.40;14.00;;;;;18.72;53.50;101542.66;2103467;28;46793;-62
2023/05/31 00:15:53;;;;;;;;;18.50;16.75;;;;;18.71;53.49;101537.34;2101270;27;45861;-61
2023/05/31 00:16:53;;;;;;;;;18.50;18.50;;;;;18.68;53.65;101538.34;2104898;27;45927;-61
2023/05/31 00:17:53;;;;;;;;;14.25;14.25;;;;;18.68;53.31;101534.78;2103819;28;45444;-60
2023/05/31 00:18:54;;;;;;;;;18.50;18.50;;;;;18.66;53.52;101539.31;2100016;28;45941;-60
2023/05/31 00:19:54;;;;;;;;;16.25;16.25;;;;;18.64;53.66;101531.34;2102882;28;46623;-59
2023/05/31 00:20:55;;;;;;;;;16.00;15.75;;;;;18.63;53.41;101534.94;2097186;28;46060;-60
2023/05/31 00:21:55;;;;;;;;;13.00;12.75;;;;;18.63;53.43;101539.44;2097192;28;46591;-62
2023/05/31 00:22:56;;;;;;;;;15.75;15.75;;;;;18.61;53.50;101538.63;2103962;28;45250;-60
2023/05/31 00:23:56;;;;;;;;;22.25;17.25;;;;;18.59;53.76;101530.63;2104095;28;45481;-61
2023/05/31 00:24:56;;;;;;;;;17.75;17.50;;;;;18.58;53.60;101534.25;2104128;28;46306;-62
2023/05/31 00:25:57;;;;;;;;;23.25;20.00;;;;;18.58;53.66;101536.06;2094556;28;48409;-60
2023/05/31 00:26:57;;;;;;;;;16.50;16.50;;;;;18.57;53.97;101537.00;2095222;28;45889;-60
2023/05/31 00:27:57;;;;;;;;;19.75;17.50;;;;;18.57;53.65;101528.94;2104743;28;46034;-61
2023/05/31 00:28:58;;;;;;;;;17.75;17.75;;;;;18.57;53.87;101542.41;2091753;28;45878;-60
2023/05/31 00:29:58;;;;;;;;;18.00;18.00;;;;;18.56;54.00;101533.47;2094518;28;46635;-61
2023/05/31 00:30:58;;;;;;;;;15.75;15.75;;;;;18.54;53.76;101536.19;2097055;28;45326;-61
2023/05/31 00:31:59;;;;;;;;;20.75;20.00;;;;;18.52;54.12;101530.00;2100664;28;46755;-61
2023/05/31 00:32:59;;;;;;;;;17.50;17.50;;;;;18.51;53.85;101533.63;2105607;28;45178;-62
2023/05/31 00:34:00;;;;;;;;;17.00;17.00;;;;;18.52;53.77;101529.13;2105604;28;45813;-59
2023/05/31 00:35:00;;;;;;;;;17.50;16.50;;;;;18.50;53.85;101531.88;2105508;28;46003;-62
2023/05/31 00:36:01;;;;;;;;;20.00;19.75;;;;;18.50;54.08;101539.06;2105361;28;46146;-63
2023/05/31 00:37:01;;;;;;;;;19.50;19.50;;;;;18.50;53.95;101531.00;2099994;28;46203;-61
2023/05/31 00:38:06;;;;;;;;;16.75;16.00;;;;;18.48;54.12;101528.38;2089743;28;45208;-60
2023/05/31 00:39:06;;;;;;;;;13.80;10.80;;;;;18.47;54.17;101529.31;2098195;28;46080;-60
2023/05/31 00:40:07;;;;;;;;;19.00;17.25;;;;;18.47;54.14;101520.38;2097833;28;46164;-63
2023/05/31 00:41:09;;;;;;;;;19.00;18.00;;;;;18.45;54.45;101531.22;2088864;28;46360;-61
2023/05/31 00:42:10;;;;;;;;;18.80;16.80;;;;;18.44;54.12;101534.84;2088718;28;45973;-61
2023/05/31 00:43:10;;;;;;;;;17.75;16.75;;;;;18.44;54.16;101533.97;2091816;28;45736;-59
2023/05/31 00:44:11;;;;;;;;;19.25;18.25;;;;;18.42;54.28;101533.13;2097724;28;46530;-61
2023/05/31 00:45:11;;;;;;;;;22.00;22.00;;;;;18.42;54.17;101535.81;2097908;28;45067;-61
2023/05/31 00:46:34;;;;;;;;;20.50;18.00;;;;;18.40;54.29;101527.81;2097544;28;46018;-60
2023/05/31 00:47:35;;;;;;;;;20.00;18.00;;;;;18.39;54.36;101515.31;2097902;28;46533;-60
2023/05/31 00:48:37;;;;;;;;;19.40;17.60;;;;;18.37;54.17;101525.25;2097685;28;47185;-64
2023/05/31 00:49:38;;;;;;;;;17.20;17.20;;;;;18.36;54.42;101523.50;2098277;28;45626;-62
2023/05/31 00:50:38;;;;;;;;;24.75;21.25;;;;;18.33;54.40;101514.72;2097634;28;46221;-62
2023/05/31 00:51:39;;;;;;;;;20.50;18.50;;;;;18.31;54.51;101525.53;2098016;28;45206;-61
2023/05/31 00:52:39;;;;;;;;;21.00;19.75;;;;;18.30;54.51;101525.59;2098061;28;45893;-60
2023/05/31 00:53:40;;;;;;;;;23.75;21.00;;;;;18.28;54.48;101517.56;2097792;28;46095;-60
2023/05/31 00:54:41;;;;;;;;;19.00;19.00;;;;;18.27;54.66;101521.19;2098545;28;46326;-60
2023/05/31 00:55:41;;;;;;;;;16.00;16.00;;;;;18.26;54.73;101523.94;2097784;28;45532;-60
2023/05/31 00:56:41;;;;;;;;;18.25;18.25;;;;;18.24;54.61;101515.97;2097623;28;46061;-60
2023/05/31 00:57:42;;;;;;;;;22.00;19.00;;;;;18.23;54.73;101519.59;2097549;28;47399;-60
2023/05/31 00:58:45;;;;;;;;;20.75;18.00;;;;;18.22;54.70;101515.16;2097787;28;46729;-60
2023/05/31 00:59:45;;;;;;;;;17.00;17.00;;;;;18.22;54.94;101517.84;2098365;28;45697;-59
2023/05/31 01:00:46;;;;;;;;;19.25;19.25;;;;;18.21;54.65;101511.59;2097374;28;46247;-61
2023/05/31 01:01:46;;;;;;;;;16.60;16.20;;;;;18.21;55.08;101516.09;2097728;28;48298;-62
2023/05/31 01:02:50;;;;;;;;;15.75;15.75;;;;;18.18;55.22;101509.03;2098241;28;45692;-62
2023/05/31 01:03:51;;;;;;;;;16.00;16.00;;;;;18.17;55.01;101507.28;2096093;28;46517;-60
2023/05/31 01:04:51;;;;;;;;;18.00;17.25;;;;;18.14;54.62;101507.38;2096633;28;46689;-60
2023/05/31 01:05:52;;;;;;;;;20.25;19.25;;;;;18.14;54.92;101511.88;2088600;28;46220;-60
2023/05/31 01:06:52;;;;;;;;;18.50;16.00;;;;;18.13;54.99;101507.44;2089136;28;45265;-61
2023/05/31 01:07:53;;;;;;;;;19.25;19.00;;;;;18.13;55.20;101513.69;2096719;28;45785;-60
2023/05/31 01:08:54;;;;;;;;;21.75;21.25;;;;;18.12;55.17;101513.75;2096703;28;45926;-60
2023/05/31 01:09:54;;;;;;;;;20.40;18.40;;;;;18.10;55.12;101507.59;2096559;28;47588;-63
2023/05/31 01:11:02;;;;;;;;;15.25;14.75;;;;;18.09;54.95;101513.91;2097057;28;45405;-61
2023/05/31 01:12:29;;;;;;;;;19.40;17.60;;;;;18.07;55.62;101513.97;2097547;28;46043;-61
2023/05/31 01:13:49;;;;;;;;;18.60;18.60;;;;;18.07;55.02;101508.59;2080598;28;45774;-59
2023/05/31 01:15:12;;;;;;;;;19.40;18.00;;;;;18.06;55.42;101512.22;2080491;28;45825;-61
2023/05/31 01:16:25;;;;;;;;;19.20;17.80;;;;;18.06;55.33;101504.16;2079805;28;45555;-61
2023/05/31 01:17:48;;;;;;;;;21.00;19.40;;;;;18.04;55.48;101511.41;2080063;28;45676;-61
2023/05/31 01:19:03;;;;;;;;;18.60;17.60;;;;;18.03;55.11;101506.06;2080043;28;46486;-61
2023/05/31 01:20:11;;;;;;;;;21.20;20.60;;;;;18.01;55.45;101508.81;2080515;28;45550;-59
2023/05/31 01:21:12;;;;;;;;;17.00;17.00;;;;;18.01;55.57;101503.44;2079697;28;45707;-63
2023/05/31 01:22:41;;;;;;;;;20.00;18.60;;;;;17.99;55.64;101508.00;2080344;28;46063;-61
2023/05/31 01:24:07;;;;;;;;;18.40;17.40;;;;;17.98;55.69;101505.38;2080241;28;46591;-60
2023/05/31 01:25:13;;;;;;;;;18.00;16.80;;;;;17.98;55.68;101513.44;2080061;28;46055;-62
2023/05/31 01:26:35;;;;;;;;;18.80;17.60;;;;;17.96;55.58;101508.13;2079729;28;45136;-61
2023/05/31 01:27:37;;;;;;;;;16.40;15.40;;;;;17.93;55.56;101509.13;2078658;28;45571;-61
2023/05/31 01:28:41;;;;;;;;;21.00;18.20;;;;;17.91;55.61;101508.34;2078567;28;45702;-61
2023/05/31 01:29:43;;;;;;;;;18.60;16.80;;;;;17.92;55.68;101512.75;2079893;28;46358;-58
2023/05/31 01:30:46;;;;;;;;;19.80;19.00;;;;;17.91;55.61;101508.34;2079849;28;46993;-61
2023/05/31 01:31:48;;;;;;;;;18.40;18.40;;;;;17.91;55.79;101512.78;2080284;28;45974;-60
2023/05/31 01:32:50;;;;;;;;;18.80;18.80;;;;;17.90;55.82;101505.69;2080604;28;46189;-61
2023/05/31 01:33:51;;;;;;;;;20.20;18.80;;;;;17.90;55.95;101506.56;2080085;28;46896;-62
2023/05/31 01:34:53;;;;;;;;;19.00;19.00;;;;;17.90;55.71;101503.00;2080111;28;45921;-61
2023/05/31 01:35:53;;;;;;;;;20.20;17.80;;;;;17.88;55.87;101500.38;2087022;28;46583;-60
2023/05/31 01:36:53;;;;;;;;;19.50;18.00;;;;;17.88;56.02;101505.75;2088900;28;45552;-61
2023/05/31 01:37:54;;;;;;;;;16.25;16.25;;;;;17.88;55.84;101508.44;2088068;28;46336;-59
2023/05/31 01:38:54;;;;;;;;;17.75;17.25;;;;;17.87;55.80;101498.63;2087403;28;46860;-61
2023/05/31 01:39:55;;;;;;;;;23.25;22.75;;;;;17.86;56.09;101496.88;2088543;28;45101;-60
2023/05/31 01:40:57;;;;;;;;;20.60;20.60;;;;;17.87;55.86;101503.13;2088704;28;45535;-61
2023/05/31 01:41:59;;;;;;;;;19.00;19.00;;;;;17.85;55.72;101495.13;2088242;28;45368;-61
2023/05/31 01:42:59;;;;;;;;;17.20;16.60;;;;;17.83;56.30;101486.25;2087656;28;46211;-60
2023/05/31 01:44:00;;;;;;;;;22.50;21.50;;;;;17.83;56.01;101496.13;2080132;28;46437;-61
2023/05/31 01:45:02;;;;;;;;;21.75;20.75;;;;;17.81;55.94;101496.19;2079967;28;46622;-61
2023/05/31 01:46:04;;;;;;;;;19.00;17.60;;;;;17.80;56.01;101494.44;2088183;28;46512;-59
2023/05/31 01:47:05;;;;;;;;;21.40;18.00;;;;;17.79;56.17;101492.72;2088080;28;46108;-62
2023/05/31 01:48:08;;;;;;;;;20.20;18.40;;;;;17.80;56.46;101496.25;2087527;28;46712;-62
2023/05/31 01:49:10;;;;;;;;;20.20;19.60;;;;;17.80;56.11;101498.94;2088491;28;45894;-60
2023/05/31 01:50:13;;;;;;;;;19.40;18.40;;;;;17.79;56.29;101494.50;2087961;28;48058;-60
2023/05/31 01:51:14;;;;;;;;;20.00;19.00;;;;;17.77;56.17;101491.88;2088284;28;46331;-61
2023/05/31 01:52:17;;;;;;;;;21.80;18.20;;;;;17.78;56.00;101498.97;2095957;28;48530;-59
2023/05/31 01:53:17;;;;;;;;;21.60;18.60;;;;;17.76;56.30;101486.56;2096279;28;46414;-60
2023/05/31 01:54:18;;;;;;;;;20.75;19.25;;;;;17.77;56.09;101493.66;2098642;28;46595;-60
2023/05/31 01:55:18;;;;;;;;;17.25;14.50;;;;;17.76;56.37;101494.63;2105430;28;46681;-60
2023/05/31 01:56:20;;;;;;;;;20.50;19.75;;;;;17.75;56.11;101492.88;2100736;27;45726;-59
2023/05/31 01:57:21;;;;;;;;;17.80;17.00;;;;;17.74;56.18;101485.75;2097309;28;45253;-60
2023/05/31 01:58:22;;;;;;;;;21.25;20.00;;;;;17.73;56.01;101497.41;2096583;28;46475;-59
2023/05/31 01:59:23;;;;;;;;;19.80;19.80;;;;;17.71;56.73;101493.94;2096831;28;46000;-61
2023/05/31 02:00:24;;;;;;;;;19.00;19.00;;;;;17.70;56.32;101486.81;2097433;28;46530;-60
2023/05/31 02:01:25;;;;;;;;;16.20;16.20;;;;;17.69;56.44;101494.00;2096677;28;46634;-59
2023/05/31 02:02:27;;;;;;;;;18.80;17.80;;;;;17.69;56.51;101494.00;2096716;28;46165;-60
2023/05/31 02:03:28;;;;;;;;;20.80;20.00;;;;;17.68;56.21;101489.53;2096410;28;46240;-58
2023/05/31 02:04:28;;;;;;;;;21.75;19.50;;;;;17.68;56.73;101486.84;2096505;28;46566;-60
2023/05/31 02:05:29;;;;;;;;;20.75;18.75;;;;;17.66;56.62;101491.41;2097444;28;45263;-61
2023/05/31 02:06:30;;;;;;;;;20.25;20.25;;;;;17.67;56.83;101492.28;2088653;28;46020;-61
2023/05/31 02:07:31;;;;;;;;;16.50;14.75;;;;;17.65;56.72;101485.13;2092320;28;45879;-61
2023/05/31 02:08:31;;;;;;;;;21.00;21.00;;;;;17.65;56.64;101485.13;2097074;28;46944;-61
2023/05/31 02:09:32;;;;;;;;;19.75;19.75;;;;;17.66;56.51;101494.09;2091326;28;45954;-62
2023/05/31 02:10:32;;;;;;;;;20.00;19.75;;;;;17.66;56.48;101488.72;2096817;28;46207;-61
2023/05/31 02:11:32;;;;;;;;;21.00;20.50;;;;;17.67;56.71;101490.47;2091499;28;46209;-61
2023/05/31 02:12:33;;;;;;;;;22.00;21.25;;;;;17.68;56.69;101494.03;2089172;28;46537;-60
2023/05/31 02:13:33;;;;;;;;;21.25;20.25;;;;;17.69;56.37;101495.81;2088497;28;46391;-62
2023/05/31 02:14:33;;;;;;;;;21.50;21.50;;;;;17.67;56.79;101489.59;2095782;28;46713;-61
2023/05/31 02:15:36;;;;;;;;;22.75;21.50;;;;;17.68;56.70;101485.97;2097065;28;45518;-61
2023/05/31 02:16:37;;;;;;;;;21.80;21.80;;;;;17.68;56.61;101494.91;2097398;28;45689;-63
2023/05/31 02:17:40;;;;;;;;;20.75;19.75;;;;;17.67;56.29;101484.22;2096656;28;45477;-62
2023/05/31 02:18:40;;;;;;;;;18.40;17.60;;;;;17.67;56.91;101490.47;2096654;28;46184;-61
2023/05/31 02:19:41;;;;;;;;;25.50;20.25;;;;;17.66;56.31;101491.41;2096825;28;45949;-63
2023/05/31 02:20:41;;;;;;;;;19.25;17.75;;;;;17.66;56.59;101486.03;2094806;28;47921;-62
2023/05/31 02:21:42;;;;;;;;;16.25;16.25;;;;;17.67;56.45;101484.22;2096596;28;46372;-63
2023/05/31 02:22:44;;;;;;;;;20.00;19.25;;;;;17.67;56.85;101484.22;2097572;28;45711;-61
2023/05/31 02:23:44;;;;;;;;;22.40;18.00;;;;;17.64;56.94;101488.75;2097725;28;45291;-61
2023/05/31 02:24:45;;;;;;;;;20.00;20.00;;;;;17.65;56.50;101489.63;2097369;28;45679;-62
2023/05/31 02:25:47;;;;;;;;;19.50;19.50;;;;;17.64;56.70;101487.88;2096595;28;45780;-64
2023/05/31 02:26:47;;;;;;;;;18.60;18.20;;;;;17.64;56.26;101479.81;2088237;28;45713;-62
2023/05/31 02:27:47;;;;;;;;;18.00;18.00;;;;;17.63;56.55;101478.06;2096359;28;45772;-63
2023/05/31 02:28:48;;;;;;;;;18.75;18.00;;;;;17.63;56.74;101481.63;2096673;28;46453;-62
2023/05/31 02:29:48;;;;;;;;;17.25;17.25;;;;;17.64;56.81;101478.00;2096760;28;46251;-62
2023/05/31 02:30:56;;;;;;;;;19.00;19.00;;;;;17.65;56.71;101478.88;2096449;28;45909;-61
2023/05/31 02:31:57;;;;;;;;;19.40;17.00;;;;;17.65;56.58;101476.19;2093383;28;45657;-62
2023/05/31 02:32:59;;;;;;;;;18.25;18.25;;;;;17.67;57.11;101478.84;2096394;28;46216;-62
2023/05/31 02:34:00;;;;;;;;;18.60;16.80;;;;;17.66;56.55;101469.94;2097200;28;45988;-62
2023/05/31 02:35:00;;;;;;;;;18.25;16.50;;;;;17.68;56.52;101470.75;2097393;28;45461;-60
2023/05/31 02:36:01;;;;;;;;;20.75;18.75;;;;;17.71;56.51;101477.81;2096546;28;45557;-62
2023/05/31 02:37:02;;;;;;;;;18.60;18.60;;;;;17.71;56.54;101478.69;2096536;28;46259;-62
2023/05/31 02:38:03;;;;;;;;;22.00;18.80;;;;;17.72;56.64;101484.94;2097522;28;46902;-63
2023/05/31 02:39:03;;;;;;;;;18.50;16.25;;;;;17.70;56.83;101476.94;2097252;28;46596;-60
2023/05/31 02:40:07;;;;;;;;;18.25;18.00;;;;;17.71;56.38;101478.69;2096480;28;45809;-61
2023/05/31 02:41:08;;;;;;;;;17.20;17.20;;;;;17.71;56.56;101477.81;2092148;28;46005;-62
2023/05/31 02:42:08;;;;;;;;;21.00;19.00;;;;;17.71;56.26;101475.13;2097228;28;47167;-62
2023/05/31 02:43:08;;;;;;;;;18.50;18.50;;;;;17.70;56.28;101471.59;2096770;28;45533;-61
2023/05/31 02:44:09;;;;;;;;;17.00;17.00;;;;;17.69;56.57;101477.88;2097084;28;46633;-64
2023/05/31 02:45:10;;;;;;;;;21.00;20.50;;;;;17.68;56.57;101477.91;2097150;28;45167;-61
2023/05/31 02:46:10;;;;;;;;;19.40;17.20;;;;;17.67;56.58;101469.00;2096678;28;46041;-62
2023/05/31 02:47:11;;;;;;;;;16.25;16.25;;;;;17.65;56.24;101476.19;2096778;28;46548;-62
2023/05/31 02:48:11;;;;;;;;;18.25;17.75;;;;;17.64;56.81;101478.00;2096574;28;45492;-61
2023/05/31 02:49:11;;;;;;;;;19.00;18.25;;;;;17.64;56.72;101477.13;2096338;28;46139;-63
2023/05/31 02:50:12;;;;;;;;;18.50;18.50;;;;;17.64;56.76;101478.00;2095993;28;45895;-63
2023/05/31 02:51:13;;;;;;;;;18.75;17.75;;;;;17.63;56.47;101472.72;2105090;28;45796;-60
2023/05/31 02:52:13;;;;;;;;;18.00;16.75;;;;;17.62;56.62;101471.84;2096782;28;46304;-62
2023/05/31 02:53:13;;;;;;;;;19.00;18.75;;;;;17.63;57.02;101470.03;2097036;28;46047;-61
2023/05/31 02:54:14;;;;;;;;;17.25;17.25;;;;;17.62;56.73;101479.00;2097571;28;45580;-61
2023/05/31 02:55:14;;;;;;;;;21.00;17.50;;;;;17.61;56.79;101474.56;2102209;27;46820;-63
2023/05/31 02:56:15;;;;;;;;;22.50;18.75;;;;;17.62;56.89;101473.63;2096165;28;46265;-61
2023/05/31 02:57:15;;;;;;;;;20.00;18.25;;;;;17.62;56.54;101476.31;2096405;28;45741;-62
2023/05/31 02:58:16;;;;;;;;;20.00;19.25;;;;;17.62;56.63;101476.31;2096866;28;45964;-62
2023/05/31 02:59:16;;;;;;;;;18.00;18.00;;;;;17.62;56.83;101473.63;2096844;28;45573;-61
2023/05/31 03:00:17;;;;;;;;;20.00;19.00;;;;;17.62;57.04;101479.88;2096667;28;44966;-60
2023/05/31 03:01:18;;;;;;;;;22.40;20.20;;;;;17.61;57.08;101469.22;2096966;28;45722;-62
2023/05/31 03:02:18;;;;;;;;;21.00;19.25;;;;;17.60;56.78;101473.69;2092676;28;45046;-59
2023/05/31 03:03:19;;;;;;;;;19.50;17.75;;;;;17.59;56.59;101477.31;2096507;28;47402;-62
2023/05/31 03:04:19;;;;;;;;;20.25;18.00;;;;;17.60;56.46;101472.84;2096791;28;46345;-61
2023/05/31 03:05:20;;;;;;;;;17.25;17.25;;;;;17.58;56.70;101469.34;2096425;28;45547;-61
2023/05/31 03:06:20;;;;;;;;;20.20;20.20;;;;;17.59;56.72;101471.97;2095328;28;46249;-63
2023/05/31 03:07:21;;;;;;;;;18.00;18.00;;;;;17.59;56.72;101468.41;2088906;28;45656;-63
2023/05/31 03:08:21;;;;;;;;;16.50;16.50;;;;;17.59;57.10;101468.41;2088275;28;45457;-61
2023/05/31 03:09:21;;;;;;;;;17.25;16.75;;;;;17.59;56.72;101468.41;2088308;28;46574;-59
2023/05/31 03:10:22;;;;;;;;;19.75;19.75;;;;;17.59;56.66;101461.22;2095816;28;46228;-61
2023/05/31 03:11:22;;;;;;;;;20.75;17.75;;;;;17.59;56.77;101465.72;2094432;28;45578;-62
2023/05/31 03:12:22;;;;;;;;;21.00;20.75;;;;;17.60;56.74;101467.47;2097133;28;45376;-62
2023/05/31 03:13:23;;;;;;;;;25.50;24.00;;;;;17.59;56.68;101463.91;2096151;28;45529;-62
2023/05/31 03:14:23;;;;;;;;;19.25;19.25;;;;;17.58;56.66;101466.66;2095905;28;46598;-63
2023/05/31 03:15:24;;;;;;;;;19.75;17.50;;;;;17.58;56.57;101463.97;2094283;28;45191;-60
2023/05/31 03:16:24;;;;;;;;;20.50;19.25;;;;;17.58;56.76;101456.78;2093699;28;46244;-61
2023/05/31 03:17:25;;;;;;;;;20.25;19.75;;;;;17.58;56.10;101451.41;2088118;28;47619;-60
2023/05/31 03:18:25;;;;;;;;;21.00;20.25;;;;;17.58;56.99;101459.47;2088217;28;46223;-61
2023/05/31 03:19:25;;;;;;;;;18.75;18.75;;;;;17.58;56.65;101453.22;2088154;28;46957;-61
2023/05/31 03:20:26;;;;;;;;;17.00;16.75;;;;;17.57;56.76;101452.38;2088589;28;46731;-61
2023/05/31 03:21:26;;;;;;;;;20.50;19.00;;;;;17.57;56.70;101451.50;2087995;28;45755;-60
2023/05/31 03:22:26;;;;;;;;;22.00;21.50;;;;;17.57;56.77;101452.38;2088957;28;45545;-61
2023/05/31 03:23:27;;;;;;;;;19.75;19.75;;;;;17.58;56.81;101450.56;2087651;28;45964;-59
2023/05/31 03:24:27;;;;;;;;;20.25;19.25;;;;;17.58;57.05;101447.88;2088414;28;46658;-60
2023/05/31 03:25:28;;;;;;;;;18.50;17.50;;;;;17.57;57.10;101452.38;2087920;28;45644;-61
2023/05/31 03:26:28;;;;;;;;;19.75;17.25;;;;;17.55;56.69;101454.25;2093722;28;46452;-60
2023/05/31 03:27:28;;;;;;;;;21.00;19.25;;;;;17.54;56.88;101452.50;2096582;28;45612;-60
2023/05/31 03:28:28;;;;;;;;;23.25;23.25;;;;;17.52;57.02;101458.81;2094885;28;46293;-61
2023/05/31 03:29:29;;;;;;;;;18.25;18.25;;;;;17.51;56.80;101462.44;2092326;28;46107;-62
2023/05/31 03:30:29;;;;;;;;;24.50;23.25;;;;;17.50;57.13;101460.69;2088634;28;45755;-62
2023/05/31 03:31:30;;;;;;;;;12.00;10.50;;;;;17.49;56.99;101467.00;2095758;28;46723;-61
2023/05/31 03:32:30;;;;;;;;;24.50;22.00;;;;;17.47;57.19;101464.38;2097041;28;45758;-61
2023/05/31 03:33:32;;;;;;;;;18.75;18.75;;;;;17.46;57.18;101456.38;2096862;28;45621;-61
2023/05/31 03:34:32;;;;;;;;;18.00;17.80;;;;;17.46;56.89;101461.75;2096082;28;46061;-60
2023/05/31 03:35:33;;;;;;;;;18.00;17.25;;;;;17.46;56.96;101461.75;2095999;28;46176;-59
2023/05/31 03:36:33;;;;;;;;;20.75;19.00;;;;;17.46;57.16;101459.06;2096179;28;45545;-61
2023/05/31 03:37:33;;;;;;;;;20.75;20.00;;;;;17.45;57.19;101463.56;2095959;28;45698;-61
2023/05/31 03:38:34;;;;;;;;;18.75;17.00;;;;;17.44;57.57;101461.81;2096845;28;45737;-62
2023/05/31 03:39:34;;;;;;;;;21.75;21.25;;;;;17.44;57.14;101459.13;2096712;28;45940;-62
2023/05/31 03:40:35;;;;;;;;;21.75;21.25;;;;;17.42;57.15;101461.00;2095968;28;46335;-61
2023/05/31 03:41:35;;;;;;;;;17.75;16.75;;;;;17.41;56.93;101459.25;2096731;28;45553;-62
2023/05/31 03:42:35;;;;;;;;;17.00;16.75;;;;;17.40;57.18;101457.47;2096596;28;46051;-61
2023/05/31 03:43:36;;;;;;;;;16.00;16.00;;;;;17.39;57.35;101468.28;2096175;28;47514;-61
2023/05/31 03:44:36;;;;;;;;;17.75;16.75;;;;;17.37;57.55;101454.94;2097048;28;45712;-61
2023/05/31 03:45:36;;;;;;;;;22.75;21.00;;;;;17.37;57.25;101460.28;2097015;28;45451;-63
2023/05/31 03:46:37;;;;;;;;;24.00;22.50;;;;;17.36;57.11;101458.53;2096896;28;45220;-61
2023/05/31 03:47:37;;;;;;;;;21.00;17.75;;;;;17.34;57.23;101463.97;2093848;28;45556;-63
2023/05/31 03:48:37;;;;;;;;;20.50;19.25;;;;;17.34;57.18;101452.38;2089821;28;46244;-62
2023/05/31 03:49:38;;;;;;;;;23.25;20.75;;;;;17.32;57.17;101463.16;2095674;28;46768;-63
2023/05/31 03:50:43;;;;;;;;;14.25;12.25;;;;;17.32;57.15;101467.66;2096225;28;45000;-61
2023/05/31 03:51:43;;;;;;;;;20.20;19.00;;;;;17.32;57.46;101464.97;2096808;28;46041;-62
2023/05/31 03:52:43;;;;;;;;;20.50;19.75;;;;;17.32;57.15;101463.16;2096114;28;47559;-62
2023/05/31 03:53:43;;;;;;;;;20.25;20.00;;;;;17.32;57.12;101465.84;2096325;28;46594;-62
2023/05/31 03:54:44;;;;;;;;;20.00;19.00;;;;;17.33;57.49;101477.44;2101827;28;45796;-63
2023/05/31 03:55:44;;;;;;;;;9.50;9.50;;;;;17.34;57.06;101468.47;2098692;27;45305;-60
2023/05/31 03:56:45;;;;;;;;;18.50;16.25;;;;;17.34;57.50;101473.81;2096781;28;46132;-60
2023/05/31 03:57:45;;;;;;;;;19.00;19.00;;;;;17.33;57.63;101472.97;2096242;28;45513;-62
2023/05/31 03:58:45;;;;;;;;;19.25;18.75;;;;;17.30;57.70;101467.72;2095580;28;45940;-62
2023/05/31 03:59:45;;;;;;;;;20.75;20.75;;;;;17.30;57.47;101477.56;2097346;28;45038;-62
2023/05/31 04:00:46;;;;;;;;;22.75;21.00;;;;;17.28;57.40;101466.03;2096543;28;46460;-61
2023/05/31 04:01:46;;;;;;;;;21.00;21.00;;;;;17.28;57.61;101474.06;2095996;28;46025;-61
2023/05/31 04:02:47;;;;;;;;;21.50;19.25;;;;;17.29;57.60;101475.81;2096672;28;46190;-61
2023/05/31 04:03:47;;;;;;;;;19.50;18.25;;;;;17.28;57.43;101474.06;2096347;28;45894;-62
2023/05/31 04:04:47;;;;;;;;;19.75;19.75;;;;;17.26;57.46;101474.09;2096387;28;44942;-62
2023/05/31 04:05:48;;;;;;;;;17.25;16.00;;;;;17.26;57.20;101474.09;2096108;28;45278;-62
2023/05/31 04:06:48;;;;;;;;;21.00;21.00;;;;;17.27;57.36;101469.63;2096245;28;46773;-62
2023/05/31 04:07:48;;;;;;;;;20.50;20.50;;;;;17.26;57.70;101466.06;2096206;28;45552;-61
2023/05/31 04:08:49;;;;;;;;;21.25;19.50;;;;;17.25;57.77;101469.66;2096595;28;44950;-60
2023/05/31 04:09:49;;;;;;;;;23.25;21.50;;;;;17.25;57.42;101466.13;2096061;28;45562;-59
2023/05/31 04:10:50;;;;;;;;;20.75;19.75;;;;;17.24;57.56;101465.25;2096533;28;45050;-61
2023/05/31 04:11:50;;;;;;;;;22.25;21.25;;;;;17.24;57.35;101472.41;2096689;28;46577;-63
2023/05/31 04:12:50;;;;;;;;;19.50;16.50;;;;;17.24;57.38;101475.97;2097333;28;45885;-63
2023/05/31 04:13:50;;;;;;;;;22.25;21.00;;;;;17.22;57.41;101475.16;2095087;28;45986;-62
2023/05/31 04:14:51;;;;;;;;;23.75;21.75;;;;;17.20;57.48;101485.06;2089035;28;46586;-63
2023/05/31 04:15:51;;;;;;;;;21.25;18.00;;;;;17.19;57.32;101482.44;2094669;28;45363;-62
2023/05/31 04:16:51;;;;;;;;;18.25;17.75;;;;;17.17;57.34;101484.31;2094645;28;45376;-63
2023/05/31 04:17:52;;;;;;;;;26.50;23.75;;;;;17.15;57.88;101483.47;2088325;28;45584;-62
2023/05/31 04:18:52;;;;;;;;;22.00;20.50;;;;;17.13;57.81;101483.53;2088785;28;45549;-60
2023/05/31 04:19:52;;;;;;;;;24.50;22.75;;;;;17.11;57.95;101482.72;2095795;28;46196;-62
2023/05/31 04:20:53;;;;;;;;;19.50;18.00;;;;;17.08;57.74;101482.84;2096645;28;46447;-62
2023/05/31 04:21:53;;;;;;;;;22.50;22.25;;;;;17.06;57.52;101487.38;2095517;28;45493;-62
2023/05/31 04:22:53;;;;;;;;;24.25;23.25;;;;;17.04;57.79;101482.09;2096792;28;46277;-62
2023/05/31 04:23:54;;;;;;;;;14.00;14.00;;;;;17.02;57.82;101486.63;2095959;28;45909;-62
2023/05/31 04:24:54;;;;;;;;;21.25;20.25;;;;;17.02;58.07;101486.63;2096885;28;45606;-63
2023/05/31 04:25:55;;;;;;;;;23.75;22.25;;;;;17.01;58.14;101482.19;2096670;28;45836;-62
2023/05/31 04:26:55;;;;;;;;;21.50;20.50;;;;;17.01;57.81;101479.50;2094164;28;45500;-60
2023/05/31 04:27:56;;;;;;;;;26.50;22.50;;;;;17.01;58.06;101489.34;2087289;28;46471;-61
2023/05/31 04:28:57;;;;;;;;;24.00;24.00;;;;;17.00;57.81;101482.22;2093736;28;45769;-62
2023/05/31 04:29:58;;;;;;;;;23.20;19.60;;;;;16.99;58.14;101491.22;2095937;28;46317;-63
2023/05/31 04:30:58;;;;;;;;;22.00;20.75;;;;;16.98;58.20;101489.47;2096621;28;46421;-65
2023/05/31 04:31:59;;;;;;;;;20.75;20.25;;;;;16.96;58.04;101486.84;2095021;28;46885;-63
2023/05/31 04:32:59;;;;;;;;;18.50;18.50;;;;;16.95;58.08;101487.78;2096308;28;46144;-64
2023/05/31 04:34:00;;;;;;;;;20.75;19.25;;;;;16.93;58.08;101488.75;2095791;28;46151;-62
2023/05/31 04:35:03;;;;;;;;;22.50;19.50;;;;;16.93;58.33;101488.75;2096430;28;45901;-62
2023/05/31 04:36:04;;;;;;;;;21.80;19.40;;;;;16.93;57.97;101483.41;2096473;28;45692;-60
2023/05/31 04:37:05;;;;;;;;;24.40;23.40;;;;;16.93;58.13;101481.59;2096172;28;46710;-61
2023/05/31 04:38:07;;;;;;;;;27.75;23.75;;;;;16.93;58.63;101484.28;2096874;28;45696;-62
2023/05/31 04:39:12;;;;;;;;;22.20;21.20;;;;;16.94;58.28;101490.50;2095585;28;46083;-61
2023/05/31 04:40:14;;;;;;;;;24.00;22.80;;;;;16.93;58.08;101486.97;2095482;28;47319;-62